KSZL/SZL METAR and TAF weather

Enter ICAO airport designator
Station Type Date Time Source
KSZL METAR 2020/01/18 14:56 UTC NOAA

KSZL 181456Z AUTO 30010G17KT 10SM OVC015 00/00 A3009 RMK AO2 SLP201 T10011002 52062 $


Station Type Date Time Source
KSZL Decoded METAR 2020/01/18 14:56 UTC NOAA

Whiteman Air Force Base, MO, United States (KSZL) 38-44N 093-33W
Jan 18, 2020 - 09:56 AM EST / 2020.01.18 1456 UTC
Wind: from the WNW (300 degrees) at 12 MPH (10 KT) gusting to 20 MPH (17 KT):0
Visibility: 10 mile(s):0
Sky conditions: overcast
Temperature: 31.8 F (-0.1 C)
Windchill: 23 F (-5 C):1
Dew Point: 31.6 F (-0.2 C)
Relative Humidity: 99%
Pressure (altimeter): 30.09 in. Hg (1018 hPa)
Pressure tendency: 0.18 inches (6.2 hPa) higher than three hours ago
ob: KSZL 181456Z AUTO 30010G17KT 10SM OVC015 00/00 A3009 RMK AO2 SLP201 T10011002 52062
cycle: 15

Station Type Date Time Source
KSZL TAF 2020/01/18 03:26 UTC NOAA

TAF
AMD KSZL 180318Z 1803/1909 16009KT 8000 -RA OVC010 620103 QNH2990INS
BECMG 1818/1819 30015G25KT 9999 FEW030 QNH2990INS TX08/1810Z TN02/1804Z LAST NO
AMDS AFT 1806 NEXT 1911

Example: see airport list